createdAt,value
2018-05-06T00:00:11.773Z,84.80
2018-05-06T00:02:39.367Z,84.70
2018-05-06T00:05:06.981Z,84.10
2018-05-06T00:07:34.660Z,83.90
2018-05-06T00:10:02.342Z,83.90
2018-05-06T00:12:30.996Z,83.60
2018-05-06T00:14:58.632Z,83.60
2018-05-06T00:17:26.287Z,83.50
2018-05-06T00:19:54.670Z,83.60
2018-05-06T00:22:22.310Z,83.50
2018-05-06T00:24:50.681Z,83.20
2018-05-06T00:27:18.333Z,83.20
2018-05-06T00:29:45.960Z,84.20
2018-05-06T00:32:13.632Z,83.40
2018-05-06T00:34:41.245Z,83.60
2018-05-06T00:37:09.661Z,84.00
2018-05-06T00:39:37.311Z,83.90
2018-05-06T00:42:04.955Z,83.60
2018-05-06T00:44:32.561Z,83.30
2018-05-06T00:47:00.212Z,83.40
2018-05-06T00:49:27.820Z,83.20
2018-05-06T00:51:55.507Z,82.90
2018-05-06T00:54:34.961Z,83.20
2018-05-06T00:57:02.597Z,83.10
2018-05-06T00:59:31.009Z,83.00
2018-05-06T01:01:58.618Z,82.90
2018-05-06T01:04:26.262Z,82.90
2018-05-06T01:06:53.905Z,83.10
2018-05-06T01:09:21.649Z,82.90
2018-05-06T01:11:49.260Z,83.10
2018-05-06T01:14:16.876Z,83.40
2018-05-06T01:16:44.521Z,84.10
2018-05-06T01:19:12.151Z,84.10
2018-05-06T01:21:40.569Z,83.70
2018-05-06T01:24:08.217Z,83.70
2018-05-06T01:26:35.869Z,83.90
2018-05-06T01:29:04.314Z,82.70
2018-05-06T01:31:32.013Z,82.70
2018-05-06T01:34:00.431Z,82.50
2018-05-06T01:36:28.126Z,82.40
2018-05-06T01:38:55.862Z,82.60
2018-05-06T01:41:28.171Z,82.80
2018-05-06T01:43:56.000Z,82.40
2018-05-06T01:46:23.653Z,82.70
2018-05-06T01:48:51.302Z,82.60
2018-05-06T01:51:19.022Z,82.40
2018-05-06T01:53:46.910Z,82.20
2018-05-06T01:56:14.682Z,82.30
2018-05-06T01:58:42.286Z,82.80
2018-05-06T02:01:09.934Z,82.70
2018-05-06T02:03:37.537Z,82.80
2018-05-06T02:06:05.949Z,83.30
2018-05-06T02:08:33.597Z,83.30
2018-05-06T02:11:01.245Z,83.20
2018-05-06T02:13:28.865Z,82.90
2018-05-06T02:15:56.554Z,83.00
2018-05-06T02:18:24.234Z,83.00
2018-05-06T02:20:52.693Z,83.00
2018-05-06T02:23:20.344Z,82.80
2018-05-06T02:25:47.933Z,82.80
2018-05-06T02:28:16.302Z,83.10
2018-05-06T02:30:44.729Z,83.30
2018-05-06T02:33:12.397Z,83.30
2018-05-06T02:35:40.041Z,83.50
2018-05-06T02:38:07.707Z,83.40
2018-05-06T02:40:35.337Z,83.30
2018-05-06T02:43:03.760Z,84.00
2018-05-06T02:45:31.453Z,84.00
2018-05-06T02:47:59.120Z,84.00
2018-05-06T02:50:26.875Z,83.90
2018-05-06T02:52:54.502Z,83.90
2018-05-06T02:55:29.481Z,83.80
2018-05-06T02:57:57.182Z,83.70
2018-05-06T03:00:24.966Z,83.60
2018-05-06T03:02:52.626Z,83.40
2018-05-06T03:05:20.373Z,83.30
2018-05-06T03:07:48.113Z,83.30
2018-05-06T03:10:19.415Z,83.40
2018-05-06T03:12:47.069Z,83.10
2018-05-06T03:15:14.709Z,83.30
2018-05-06T03:17:42.355Z,83.20
2018-05-06T03:20:10.790Z,83.60
2018-05-06T03:22:38.385Z,83.50
2018-05-06T03:25:06.811Z,83.30
2018-05-06T03:27:34.446Z,83.30
2018-05-06T03:30:02.095Z,84.10
2018-05-06T03:32:30.462Z,83.10
2018-05-06T03:34:58.884Z,83.30
2018-05-06T03:37:26.542Z,83.20
2018-05-06T03:39:54.256Z,83.10
2018-05-06T03:42:21.897Z,82.50
2018-05-06T03:44:49.550Z,82.10
2018-05-06T03:47:17.197Z,82.40
2018-05-06T03:49:44.884Z,82.20
2018-05-06T03:52:12.510Z,82.20
2018-05-06T03:54:40.958Z,82.60
2018-05-06T03:57:30.047Z,82.70
2018-05-06T04:00:09.398Z,82.60
2018-05-06T04:02:38.790Z,82.60
2018-05-06T04:05:07.288Z,82.90
2018-05-06T04:07:34.951Z,82.60
2018-05-06T04:10:02.574Z,83.10
2018-05-06T04:12:30.957Z,83.10
2018-05-06T04:14:58.659Z,83.10
2018-05-06T04:17:26.290Z,83.10
2018-05-06T04:19:53.945Z,83.00
2018-05-06T04:22:21.618Z,83.00
2018-05-06T04:24:49.248Z,82.60
2018-05-06T04:27:17.672Z,83.70
2018-05-06T04:29:45.265Z,83.00
2018-05-06T04:32:12.917Z,82.90
2018-05-06T04:34:40.526Z,82.90
2018-05-06T04:37:08.179Z,83.20
2018-05-06T04:39:36.605Z,83.40
2018-05-06T04:42:04.625Z,83.40
2018-05-06T04:44:33.032Z,83.30
2018-05-06T04:47:00.634Z,83.30
2018-05-06T04:49:28.281Z,83.10
2018-05-06T04:51:55.927Z,82.80
2018-05-06T04:54:23.587Z,82.50
2018-05-06T04:56:51.190Z,82.40
2018-05-06T04:59:18.830Z,81.80
2018-05-06T05:01:46.437Z,81.20
2018-05-06T05:04:14.857Z,82.20
2018-05-06T05:06:42.477Z,82.00
2018-05-06T05:09:10.847Z,81.00
2018-05-06T05:11:39.269Z,80.60
2018-05-06T05:14:06.917Z,80.50
2018-05-06T05:16:34.529Z,80.80
2018-05-06T05:19:02.202Z,81.00
2018-05-06T05:21:29.815Z,80.70
2018-05-06T05:23:57.418Z,80.00
2018-05-06T05:26:25.051Z,80.10
2018-05-06T05:28:53.836Z,80.10
2018-05-06T05:31:21.431Z,79.80
2018-05-06T05:33:49.068Z,79.80
2018-05-06T05:36:16.705Z,80.00
2018-05-06T05:38:44.679Z,80.20
2018-05-06T05:41:12.362Z,80.20
2018-05-06T05:43:39.953Z,79.60
2018-05-06T05:46:07.572Z,79.00
2018-05-06T05:48:35.208Z,79.40
2018-05-06T05:51:02.806Z,79.00
2018-05-06T05:53:30.451Z,79.10
2018-05-06T05:55:58.089Z,78.30
2018-05-06T05:58:25.681Z,78.30
2018-05-06T06:00:53.320Z,78.30
2018-05-06T06:03:20.922Z,78.20
2018-05-06T06:05:48.565Z,77.60
2018-05-06T06:08:16.226Z,77.20
2018-05-06T06:10:43.947Z,77.70
2018-05-06T06:13:11.680Z,77.00
2018-05-06T06:15:40.186Z,77.70
2018-05-06T06:18:08.619Z,77.30
2018-05-06T06:20:36.341Z,77.30
2018-05-06T06:23:03.994Z,77.40
2018-05-06T06:25:31.676Z,77.60
2018-05-06T06:27:59.357Z,77.30
2018-05-06T06:30:26.992Z,77.20
2018-05-06T06:32:54.651Z,77.30
2018-05-06T06:35:22.327Z,77.20
2018-05-06T06:37:49.962Z,77.00
2018-05-06T06:40:18.360Z,77.60
2018-05-06T06:42:46.021Z,77.60
2018-05-06T06:45:14.493Z,77.50
2018-05-06T06:47:42.159Z,77.50
2018-05-06T06:50:09.807Z,77.40
2018-05-06T06:52:37.476Z,77.80
2018-05-06T06:55:05.142Z,76.90
2018-05-06T06:57:32.801Z,77.20
2018-05-06T07:00:02.241Z,76.90
2018-05-06T07:02:29.875Z,76.70
2018-05-06T07:04:57.534Z,76.80
2018-05-06T07:07:25.197Z,77.90
2018-05-06T07:09:53.089Z,76.60
2018-05-06T07:12:20.698Z,77.00
2018-05-06T07:14:49.130Z,76.10
2018-05-06T07:17:16.804Z,76.10
2018-05-06T07:19:44.453Z,76.60
2018-05-06T07:22:12.127Z,76.30
2018-05-06T07:24:39.748Z,75.10
2018-05-06T07:27:07.835Z,75.80
2018-05-06T07:29:35.517Z,75.10
2018-05-06T07:32:03.172Z,75.20
2018-05-06T07:34:31.181Z,75.20
2018-05-06T07:36:59.608Z,72.90
2018-05-06T07:39:27.250Z,72.90
2018-05-06T07:41:54.890Z,72.60
2018-05-06T07:44:23.317Z,72.00
2018-05-06T07:46:50.926Z,72.00
2018-05-06T07:49:19.341Z,72.10
2018-05-06T07:51:46.937Z,72.10
2018-05-06T07:54:14.654Z,71.80
2018-05-06T07:56:43.553Z,71.70
2018-05-06T07:59:11.261Z,70.10
2018-05-06T08:01:38.869Z,70.00
2018-05-06T08:06:39.408Z,69.50
2018-05-06T08:09:07.029Z,69.60
2018-05-06T08:11:34.682Z,68.10
2018-05-06T08:14:02.280Z,67.90
2018-05-06T08:16:30.753Z,68.00
2018-05-06T08:18:58.353Z,67.90
2018-05-06T08:21:25.989Z,68.00
2018-05-06T08:23:54.361Z,68.80
2018-05-06T08:26:22.765Z,69.00
2018-05-06T08:28:50.411Z,68.90
2018-05-06T08:31:18.861Z,68.00
2018-05-06T08:33:46.552Z,67.90
2018-05-06T08:36:14.157Z,67.10
2018-05-06T08:38:41.789Z,65.20
2018-05-06T08:41:09.429Z,64.60
2018-05-06T08:43:37.797Z,62.50
2018-05-06T08:46:06.205Z,62.30
2018-05-06T08:48:33.800Z,62.30
2018-05-06T08:51:01.457Z,61.50
2018-05-06T08:53:29.125Z,62.40
2018-05-06T08:55:56.760Z,62.40
2018-05-06T08:58:24.387Z,62.50
2018-05-06T09:00:52.820Z,62.40
2018-05-06T09:03:20.454Z,62.30
2018-05-06T09:05:48.054Z,61.50
2018-05-06T09:08:15.685Z,61.50
2018-05-06T09:10:43.286Z,61.50
2018-05-06T09:13:10.925Z,61.90
2018-05-06T09:15:38.526Z,61.60
2018-05-06T09:18:06.952Z,61.30
2018-05-06T09:20:34.591Z,61.30
2018-05-06T09:23:02.222Z,58.50
2018-05-06T09:25:30.001Z,58.10
2018-05-06T09:27:57.523Z,57.50
2018-05-06T09:30:25.195Z,56.90
2018-05-06T09:32:52.837Z,56.20
2018-05-06T09:35:20.433Z,57.50
2018-05-06T09:37:48.169Z,55.00
2018-05-06T09:40:16.487Z,53.30
2018-05-06T09:42:44.902Z,53.90
2018-05-06T09:45:12.502Z,53.90
2018-05-06T09:47:40.156Z,54.00
2018-05-06T09:50:07.804Z,53.30
2018-05-06T09:52:35.456Z,53.90
2018-05-06T09:55:03.116Z,53.40
2018-05-06T09:57:30.775Z,53.40
2018-05-06T09:59:58.380Z,51.10
2018-05-06T10:02:26.022Z,51.00
2018-05-06T10:04:53.652Z,51.00
2018-05-06T10:07:21.342Z,51.00
2018-05-06T10:09:48.987Z,50.80
2018-05-06T10:12:16.623Z,52.70
2018-05-06T10:14:44.221Z,52.50
2018-05-06T10:17:11.862Z,51.80
2018-05-06T10:19:39.521Z,50.60
2018-05-06T10:22:07.167Z,50.40
2018-05-06T10:24:34.789Z,52.20
2018-05-06T10:27:02.429Z,49.80
2018-05-06T10:29:30.066Z,50.50
2018-05-06T10:31:57.687Z,50.80
2018-05-06T10:34:26.097Z,49.70
2018-05-06T10:36:53.762Z,49.70
2018-05-06T10:39:21.400Z,49.00
2018-05-06T10:41:49.771Z,50.30
2018-05-06T10:44:18.258Z,49.80
2018-05-06T10:46:47.013Z,49.70
2018-05-06T10:49:14.721Z,50.60
2018-05-06T10:51:43.097Z,49.50
2018-05-06T10:54:10.780Z,49.50
2018-05-06T10:56:38.483Z,50.40
2018-05-06T10:59:06.117Z,48.00
2018-05-06T11:01:33.836Z,46.50
2018-05-06T11:04:02.247Z,48.10
2018-05-06T11:06:29.869Z,48.00
2018-05-06T11:08:58.279Z,47.20
2018-05-06T11:11:25.954Z,47.20
2018-05-06T11:13:53.546Z,46.60
2018-05-06T11:16:21.191Z,46.10
2018-05-06T11:18:48.911Z,46.70
2018-05-06T11:21:16.712Z,46.10
2018-05-06T11:23:44.358Z,45.60
2018-05-06T11:26:11.966Z,45.70
2018-05-06T11:28:39.641Z,45.00
2018-05-06T11:31:08.042Z,45.80
2018-05-06T11:33:35.706Z,45.80
2018-05-06T11:36:03.328Z,44.80
2018-05-06T11:38:30.960Z,43.50
2018-05-06T11:40:58.641Z,42.40
2018-05-06T11:43:26.232Z,43.40
2018-05-06T11:45:54.643Z,42.50
2018-05-06T11:48:22.234Z,42.40
2018-05-06T11:50:49.854Z,41.30
2018-05-06T11:53:17.480Z,41.80
2018-05-06T11:55:45.078Z,42.20
2018-05-06T11:58:12.702Z,42.10
2018-05-06T12:00:41.069Z,40.80
2018-05-06T12:03:08.741Z,40.80
2018-05-06T12:05:37.104Z,42.10
2018-05-06T12:08:04.740Z,41.30
2018-05-06T12:10:33.177Z,41.20
2018-05-06T12:13:01.568Z,39.60
2018-05-06T12:15:29.205Z,39.60
2018-05-06T12:17:57.565Z,39.20
2018-05-06T12:20:25.197Z,39.20
2018-05-06T12:22:52.817Z,39.30
2018-05-06T12:25:21.248Z,39.80
2018-05-06T12:27:50.526Z,39.80
2018-05-06T12:30:18.157Z,39.30
2018-05-06T12:32:46.513Z,38.30
2018-05-06T12:35:14.153Z,38.30
2018-05-06T12:37:41.785Z,38.60
2018-05-06T12:40:09.373Z,39.50
2018-05-06T12:42:37.033Z,38.60
2018-05-06T12:45:04.622Z,38.60
2018-05-06T12:47:32.292Z,38.10
2018-05-06T12:50:00.702Z,37.50
2018-05-06T12:52:28.333Z,37.50
2018-05-06T12:54:56.693Z,37.80
2018-05-06T12:57:24.365Z,37.80
2018-05-06T12:59:51.997Z,38.40
2018-05-06T13:02:19.622Z,38.30
2018-05-06T13:04:47.250Z,38.10
2018-05-06T13:07:14.854Z,38.90
2018-05-06T13:09:42.478Z,38.60
2018-05-06T13:12:10.885Z,37.50
2018-05-06T13:14:38.536Z,37.50
2018-05-06T13:17:06.893Z,37.70
2018-05-06T13:19:35.309Z,36.90
2018-05-06T13:22:02.908Z,36.90
2018-05-06T13:24:30.540Z,37.60
2018-05-06T13:26:58.161Z,37.60
2018-05-06T13:29:26.561Z,37.80
2018-05-06T13:31:54.204Z,37.80
2018-05-06T13:34:22.722Z,37.90
2018-05-06T13:36:50.357Z,37.80
2018-05-06T13:39:17.997Z,37.20
2018-05-06T13:41:46.389Z,37.10
2018-05-06T13:44:14.757Z,36.70
2018-05-06T13:46:43.169Z,37.50
2018-05-06T13:49:10.848Z,37.10
2018-05-06T13:51:38.480Z,36.60
2018-05-06T13:54:06.113Z,36.40
2018-05-06T13:56:33.718Z,35.90
2018-05-06T13:59:01.413Z,36.20
2018-05-06T14:01:29.031Z,35.90
2018-05-06T14:03:56.680Z,35.60
2018-05-06T14:06:25.047Z,36.20
2018-05-06T14:08:53.482Z,36.20
2018-05-06T14:11:21.109Z,36.20
2018-05-06T14:13:48.720Z,36.20
2018-05-06T14:16:17.138Z,36.60
2018-05-06T14:18:45.531Z,36.70
2018-05-06T14:21:13.197Z,36.60
2018-05-06T14:23:40.808Z,35.50
2018-05-06T14:26:08.443Z,34.70
2018-05-06T14:28:36.091Z,33.70
2018-05-06T14:31:03.737Z,32.50
2018-05-06T14:33:31.333Z,32.90
2018-05-06T14:35:58.957Z,33.70
2018-05-06T14:38:26.589Z,32.80
2018-05-06T14:40:54.220Z,31.50
2018-05-06T14:43:21.867Z,31.30
2018-05-06T14:45:49.458Z,31.70
2018-05-06T14:48:17.093Z,31.20
2018-05-06T14:50:44.769Z,31.30
2018-05-06T14:53:12.410Z,32.20
2018-05-06T14:55:40.049Z,32.60
2018-05-06T14:58:07.645Z,32.00
2018-05-06T15:00:35.324Z,30.40
2018-05-06T15:03:02.965Z,30.40
2018-05-06T15:05:30.588Z,31.30
2018-05-06T15:07:58.940Z,29.90
2018-05-06T15:10:26.696Z,29.90
2018-05-06T15:12:54.224Z,29.90
2018-05-06T15:15:21.907Z,29.80
2018-05-06T15:17:49.508Z,29.70
2018-05-06T15:20:17.958Z,29.50
2018-05-06T15:22:45.599Z,29.40
2018-05-06T15:25:13.234Z,29.50
2018-05-06T15:27:40.991Z,29.70
2018-05-06T15:30:08.679Z,29.90
2018-05-06T15:32:36.282Z,30.70
2018-05-06T15:35:04.689Z,30.90
2018-05-06T15:37:32.318Z,30.80
2018-05-06T15:39:59.919Z,31.60
2018-05-06T15:42:27.544Z,32.10
2018-05-06T15:44:55.949Z,32.80
2018-05-06T15:47:23.548Z,32.80
2018-05-06T15:49:51.186Z,33.90
2018-05-06T15:52:18.818Z,34.00
2018-05-06T15:54:47.221Z,34.40
2018-05-06T15:57:15.197Z,34.30
2018-05-06T15:59:42.854Z,34.60
2018-05-06T16:02:33.245Z,35.00
2018-05-06T16:05:00.901Z,35.20
2018-05-06T16:07:28.510Z,35.10
2018-05-06T16:09:56.149Z,35.10
2018-05-06T16:12:23.785Z,35.50
2018-05-06T16:14:51.418Z,35.50
2018-05-06T16:17:19.821Z,34.80
2018-05-06T16:19:48.074Z,34.80
2018-05-06T16:22:16.564Z,36.00
2018-05-06T16:24:44.457Z,36.00
2018-05-06T16:27:12.059Z,36.10
2018-05-06T16:29:39.773Z,36.00
2018-05-06T16:32:08.118Z,35.50
2018-05-06T16:34:36.551Z,35.90
2018-05-06T16:37:04.201Z,35.80
2018-05-06T16:39:31.826Z,36.30
2018-05-06T16:42:00.213Z,36.10
2018-05-06T16:44:27.879Z,36.10
2018-05-06T16:46:55.481Z,36.60
2018-05-06T16:49:23.134Z,36.70
2018-05-06T16:51:50.732Z,36.80
2018-05-06T16:54:18.414Z,36.80
2018-05-06T16:56:46.773Z,37.70
2018-05-06T16:59:14.425Z,37.60
2018-05-06T17:01:42.061Z,38.50
2018-05-06T17:04:09.698Z,36.80
2018-05-06T17:06:37.357Z,37.10
2018-05-06T17:09:05.901Z,37.70
2018-05-06T17:11:33.505Z,37.80
2018-05-06T17:14:01.123Z,39.00
2018-05-06T17:16:28.782Z,40.50
2018-05-06T17:18:56.390Z,40.40
2018-05-06T17:21:24.046Z,41.00
2018-05-06T17:23:51.694Z,40.50
2018-05-06T17:26:20.057Z,43.10
2018-05-06T17:28:48.464Z,44.70
2018-05-06T17:31:16.058Z,44.70
2018-05-06T17:33:43.713Z,45.40
2018-05-06T17:36:11.325Z,45.00
2018-05-06T17:38:39.761Z,45.60
2018-05-06T17:41:07.462Z,45.60
2018-05-06T17:43:35.836Z,45.60
2018-05-06T17:46:04.986Z,46.20
2018-05-06T17:48:32.689Z,46.20
2018-05-06T17:51:00.367Z,46.20
2018-05-06T17:53:28.945Z,49.30
2018-05-06T17:55:57.968Z,50.20
2018-05-06T17:58:28.589Z,50.10
2018-05-06T18:00:56.860Z,50.00
2018-05-06T18:03:24.880Z,50.60
2018-05-06T18:05:53.080Z,50.80
2018-05-06T18:08:22.383Z,49.70
2018-05-06T18:10:51.456Z,50.30
2018-05-06T18:13:20.561Z,51.20
2018-05-06T18:15:50.375Z,51.70
2018-05-06T18:18:19.459Z,52.30
2018-05-06T18:20:47.628Z,51.80
2018-05-06T18:23:17.736Z,52.80
2018-05-06T18:25:46.637Z,52.80
2018-05-06T18:28:14.857Z,53.50
2018-05-06T18:30:43.898Z,53.40
2018-05-06T18:33:15.686Z,54.80
2018-05-06T18:35:44.803Z,55.70
2018-05-06T18:38:13.748Z,56.70
2018-05-06T18:40:41.872Z,56.70
2018-05-06T18:43:12.507Z,57.30
2018-05-06T18:45:43.037Z,57.50
2018-05-06T18:48:12.119Z,57.50
2018-05-06T18:50:40.228Z,58.70
2018-05-06T18:53:09.211Z,59.80
2018-05-06T18:55:39.262Z,60.40
2018-05-06T18:58:09.408Z,60.40
2018-05-06T19:00:39.504Z,60.20
2018-05-06T19:03:08.012Z,59.20
2018-05-06T19:05:39.055Z,59.70
2018-05-06T19:08:07.086Z,57.90
2018-05-06T19:10:36.943Z,58.50
2018-05-06T19:13:06.087Z,59.50
2018-05-06T19:15:35.724Z,59.10
2018-05-06T19:18:04.326Z,58.60
2018-05-06T19:20:39.977Z,59.30
2018-05-06T19:23:08.464Z,59.80
2018-05-06T19:28:11.339Z,60.60
2018-05-06T19:30:39.043Z,60.60
2018-05-06T19:33:08.746Z,61.40
2018-05-06T19:35:36.920Z,61.30
2018-05-06T19:40:52.481Z,62.00
2018-05-06T19:43:20.391Z,62.50
2018-05-06T19:48:20.675Z,62.70
2018-05-06T19:50:48.343Z,62.50
2018-05-06T19:53:15.990Z,63.60
2018-05-06T19:55:44.464Z,64.20
2018-05-06T19:58:12.166Z,64.80
2018-05-06T20:00:40.713Z,65.80
2018-05-06T20:03:08.329Z,65.80
2018-05-06T20:05:36.781Z,66.70
2018-05-06T20:08:05.189Z,67.10
2018-05-06T20:10:33.562Z,67.30
2018-05-06T20:13:02.001Z,67.50
2018-05-06T20:15:29.633Z,67.50
2018-05-06T20:17:57.285Z,67.50
2018-05-06T20:20:24.885Z,67.50
2018-05-06T20:22:52.920Z,67.20
2018-05-06T20:25:20.525Z,67.60
2018-05-06T20:27:48.175Z,68.00
2018-05-06T20:30:15.784Z,68.20
2018-05-06T20:32:44.209Z,68.60
2018-05-06T20:35:11.808Z,68.60
2018-05-06T20:37:40.097Z,68.60
2018-05-06T20:40:08.539Z,68.20
2018-05-06T20:42:36.282Z,68.20
2018-05-06T20:45:04.051Z,68.50
2018-05-06T20:47:31.705Z,68.40
2018-05-06T20:49:59.300Z,68.80
2018-05-06T20:52:26.936Z,69.00
2018-05-06T20:54:55.297Z,69.40
2018-05-06T20:57:22.970Z,69.30
2018-05-06T20:59:50.574Z,69.00
2018-05-06T21:02:18.212Z,68.80
2018-05-06T21:04:45.853Z,69.70
2018-05-06T21:07:13.445Z,70.20
2018-05-06T21:09:41.072Z,70.30
2018-05-06T21:12:08.734Z,70.10
2018-05-06T21:14:36.382Z,69.90
2018-05-06T21:17:04.013Z,70.30
2018-05-06T21:19:32.417Z,70.50
2018-05-06T21:22:00.021Z,70.40
2018-05-06T21:24:27.708Z,70.70
2018-05-06T21:26:55.639Z,70.80
2018-05-06T21:29:23.288Z,71.40
2018-05-06T21:31:50.929Z,71.40
2018-05-06T21:34:18.554Z,71.60
2018-05-06T21:36:46.200Z,71.50
2018-05-06T21:39:15.737Z,71.40
2018-05-06T21:41:43.304Z,71.40
2018-05-06T21:44:11.704Z,71.90
2018-05-06T21:46:39.341Z,71.80
2018-05-06T21:49:07.714Z,72.00
2018-05-06T21:51:35.360Z,72.00
2018-05-06T21:54:03.048Z,72.00
2018-05-06T21:56:31.410Z,71.60
2018-05-06T21:58:59.054Z,71.40
2018-05-06T22:01:27.469Z,70.90
2018-05-06T22:03:55.828Z,71.60
2018-05-06T22:06:23.485Z,71.60
2018-05-06T22:08:51.073Z,71.10
2018-05-06T22:11:19.501Z,71.50
2018-05-06T22:13:47.141Z,71.50
2018-05-06T22:16:14.745Z,71.40
2018-05-06T22:18:42.376Z,71.80
2018-05-06T22:21:10.026Z,72.30
2018-05-06T22:23:37.642Z,72.60
2018-05-06T22:26:06.049Z,72.70
2018-05-06T22:28:33.662Z,72.70
2018-05-06T22:31:01.298Z,72.70
2018-05-06T22:33:28.881Z,73.10
2018-05-06T22:35:56.516Z,73.10
2018-05-06T22:38:24.165Z,73.30
2018-05-06T22:40:51.752Z,73.80
2018-05-06T22:43:19.449Z,73.90
2018-05-06T22:45:47.813Z,74.50
2018-05-06T22:48:15.404Z,74.50
2018-05-06T22:50:43.069Z,74.10
2018-05-06T22:53:10.662Z,74.10
2018-05-06T22:55:38.298Z,73.90
2018-05-06T22:58:05.897Z,74.10
2018-05-06T23:00:33.523Z,73.90
2018-05-06T23:03:01.144Z,73.60
2018-05-06T23:05:28.727Z,73.40
2018-05-06T23:07:57.128Z,73.50
2018-05-06T23:10:24.812Z,73.50
2018-05-06T23:12:52.449Z,73.70
2018-05-06T23:15:20.089Z,73.90
2018-05-06T23:17:48.497Z,73.30
2018-05-06T23:20:16.128Z,73.30
2018-05-06T23:22:44.521Z,74.70
2018-05-06T23:25:12.219Z,73.90
2018-05-06T23:27:39.784Z,74.20
2018-05-06T23:30:07.413Z,74.20
2018-05-06T23:32:35.046Z,74.20
2018-05-06T23:35:03.432Z,75.10
2018-05-06T23:37:31.829Z,74.90
2018-05-06T23:39:59.465Z,74.90
2018-05-06T23:42:27.821Z,74.90
2018-05-06T23:44:55.473Z,74.90
2018-05-06T23:47:23.175Z,75.20
2018-05-06T23:49:50.842Z,75.30
2018-05-06T23:52:18.520Z,75.40
2018-05-06T23:54:46.180Z,75.60
2018-05-06T23:57:13.833Z,75.50
2018-05-06T23:59:41.424Z,75.40
